Double Springs, Alabama
Current Conditions -  °F | °C
As of 4:56 PM on Saturday 25 Oct 2014 (Local Time) from K1M4 Reporting Station
Clear Clear  
Wind Chill: 23°   Ceiling: Unl
Heat Index: 23°   Visibility: 10mi
Dew Point: 17°   Wind: 3mph
Humidity: 66%   Direction: 270°W
Pressure: 30.07"   Gusts: NA
Location:  34.15°N, 87.4°W
Report Text: K1M4 252156Z AUTO 27003KT 10SM CLR 23/17 A3007 RMK AO2 T02330166 SLP195
Loading
Personal Weather Stations






























Interactive Weather Map
Tropical Storm Tracking
New forecast layout! Learn more

10-Day Weather Forecast

Advertisements
Track Severe Weather on mobile